MMMX/MEX METAR and TAF weather

Enter ICAO airport designator
Station Type Date Time Source
MMMX METAR 2019/12/06 01:45 UTC NOAA

MMMX 060145Z 01006KT 10SM SKC 20/M01 A3034 NOSIG RMK HZY


Station Type Date Time Source
MMMX Decoded METAR 2019/12/06 01:45 UTC NOAA

Mexico City / Licenci, Mexico (MMMX) 19-26N 099-06W
Dec 05, 2019 - 08:45 PM EST / 2019.12.06 0145 UTC
Wind: from the N (010 degrees) at 7 MPH (6 KT):0
Visibility: 10 mile(s):0
Sky conditions: clear
Temperature: 68 F (20 C)
Dew Point: 30 F (-1 C)
Relative Humidity: 24%
Pressure (altimeter): 30.34 in. Hg (1027 hPa)
ob: MMMX 060145Z 01006KT 10SM SKC 20/M01 A3034 NOSIG RMK HZY
cycle: 2

Station Type Date Time Source
MMMX TAF 2019/12/05 18:52 UTC NOAA

TAF COR MMMX 051648Z 0518/0624 34015KT P6SM SKC TX24/0520Z TN08/0612Z
BECMG 0601/0602 00000KT
FM061600 05010KT P6SM SKC

Example: see airport list